sensor_id;sensor_type;location;lat;lon;timestamp;P1;durP1;ratioP1;P2;durP2;ratioP2
14373;SDS011;7270;49.004;12.066;2023-07-16T00:00:50;1.50;;;1.40;;
14373;SDS011;7270;49.004;12.066;2023-07-16T00:03:16;1.50;;;1.40;;
14373;SDS011;7270;49.004;12.066;2023-07-16T00:05:42;1.50;;;1.40;;
14373;SDS011;7270;49.004;12.066;2023-07-16T00:08:09;1.50;;;1.40;;
14373;SDS011;7270;49.004;12.066;2023-07-16T00:10:35;1.40;;;1.30;;
14373;SDS011;7270;49.004;12.066;2023-07-16T00:13:02;1.70;;;1.60;;
14373;SDS011;7270;49.004;12.066;2023-07-16T00:15:29;1.50;;;1.40;;
14373;SDS011;7270;49.004;12.066;2023-07-16T00:17:56;1.40;;;1.30;;
14373;SDS011;7270;49.004;12.066;2023-07-16T00:20:22;1.50;;;1.40;;
14373;SDS011;7270;49.004;12.066;2023-07-16T00:22:49;1.20;;;1.20;;
14373;SDS011;7270;49.004;12.066;2023-07-16T00:25:16;1.40;;;1.30;;
14373;SDS011;7270;49.004;12.066;2023-07-16T00:27:42;1.50;;;1.40;;
14373;SDS011;7270;49.004;12.066;2023-07-16T00:30:08;1.50;;;1.40;;
14373;SDS011;7270;49.004;12.066;2023-07-16T00:32:36;1.40;;;1.30;;
14373;SDS011;7270;49.004;12.066;2023-07-16T00:35:03;1.40;;;1.30;;
14373;SDS011;7270;49.004;12.066;2023-07-16T00:37:30;1.40;;;1.30;;
14373;SDS011;7270;49.004;12.066;2023-07-16T00:39:57;1.20;;;1.20;;
14373;SDS011;7270;49.004;12.066;2023-07-16T00:42:23;1.50;;;1.40;;
14373;SDS011;7270;49.004;12.066;2023-07-16T00:44:50;1.60;;;1.50;;
14373;SDS011;7270;49.004;12.066;2023-07-16T00:47:16;1.33;;;1.23;;
14373;SDS011;7270;49.004;12.066;2023-07-16T00:49:44;1.20;;;1.20;;
14373;SDS011;7270;49.004;12.066;2023-07-16T00:52:11;0.90;;;0.90;;
14373;SDS011;7270;49.004;12.066;2023-07-16T00:54:40;1.10;;;1.10;;
14373;SDS011;7270;49.004;12.066;2023-07-16T00:57:06;1.00;;;1.00;;
14373;SDS011;7270;49.004;12.066;2023-07-16T00:59:33;1.00;;;1.00;;
14373;SDS011;7270;49.004;12.066;2023-07-16T01:01:59;1.40;;;1.40;;
14373;SDS011;7270;49.004;12.066;2023-07-16T01:04:25;1.50;;;1.40;;
14373;SDS011;7270;49.004;12.066;2023-07-16T01:06:53;1.17;;;1.17;;
14373;SDS011;7270;49.004;12.066;2023-07-16T01:09:21;1.10;;;1.10;;
14373;SDS011;7270;49.004;12.066;2023-07-16T01:11:48;1.00;;;1.00;;
14373;SDS011;7270;49.004;12.066;2023-07-16T01:14:16;1.10;;;1.10;;
14373;SDS011;7270;49.004;12.066;2023-07-16T01:16:42;1.23;;;1.20;;
14373;SDS011;7270;49.004;12.066;2023-07-16T01:19:08;1.50;;;1.40;;
14373;SDS011;7270;49.004;12.066;2023-07-16T01:21:35;1.70;;;1.60;;
14373;SDS011;7270;49.004;12.066;2023-07-16T01:24:11;1.10;;;1.10;;
14373;SDS011;7270;49.004;12.066;2023-07-16T01:26:44;1.10;;;1.10;;
14373;SDS011;7270;49.004;12.066;2023-07-16T01:29:30;1.10;;;1.10;;
14373;SDS011;7270;49.004;12.066;2023-07-16T01:31:57;1.03;;;1.03;;
14373;SDS011;7270;49.004;12.066;2023-07-16T01:34:25;1.10;;;1.10;;
14373;SDS011;7270;49.004;12.066;2023-07-16T01:36:52;1.10;;;1.10;;
14373;SDS011;7270;49.004;12.066;2023-07-16T01:39:18;1.10;;;1.10;;
14373;SDS011;7270;49.004;12.066;2023-07-16T01:41:45;1.10;;;1.10;;
14373;SDS011;7270;49.004;12.066;2023-07-16T01:44:11;0.90;;;0.90;;
14373;SDS011;7270;49.004;12.066;2023-07-16T01:46:39;1.00;;;1.00;;
14373;SDS011;7270;49.004;12.066;2023-07-16T01:49:05;1.00;;;1.00;;
14373;SDS011;7270;49.004;12.066;2023-07-16T01:51:31;0.93;;;0.93;;
14373;SDS011;7270;49.004;12.066;2023-07-16T01:53:58;1.20;;;1.20;;
14373;SDS011;7270;49.004;12.066;2023-07-16T01:56:24;1.00;;;1.00;;
14373;SDS011;7270;49.004;12.066;2023-07-16T01:58:50;1.00;;;1.00;;
14373;SDS011;7270;49.004;12.066;2023-07-16T02:01:16;1.23;;;1.23;;
14373;SDS011;7270;49.004;12.066;2023-07-16T02:03:44;1.10;;;1.10;;
14373;SDS011;7270;49.004;12.066;2023-07-16T02:06:10;1.10;;;1.10;;
14373;SDS011;7270;49.004;12.066;2023-07-16T02:08:38;1.20;;;1.20;;
14373;SDS011;7270;49.004;12.066;2023-07-16T02:11:04;1.00;;;1.00;;
14373;SDS011;7270;49.004;12.066;2023-07-16T02:13:31;1.10;;;1.10;;
14373;SDS011;7270;49.004;12.066;2023-07-16T02:15:57;1.00;;;1.00;;
14373;SDS011;7270;49.004;12.066;2023-07-16T02:18:24;1.00;;;1.00;;
14373;SDS011;7270;49.004;12.066;2023-07-16T02:20:51;1.10;;;1.10;;
14373;SDS011;7270;49.004;12.066;2023-07-16T02:23:18;0.90;;;0.90;;
14373;SDS011;7270;49.004;12.066;2023-07-16T02:25:44;1.00;;;1.00;;
14373;SDS011;7270;49.004;12.066;2023-07-16T02:28:10;0.80;;;0.80;;
14373;SDS011;7270;49.004;12.066;2023-07-16T02:30:37;0.80;;;0.80;;
14373;SDS011;7270;49.004;12.066;2023-07-16T02:33:03;0.90;;;0.90;;
14373;SDS011;7270;49.004;12.066;2023-07-16T02:35:29;0.90;;;0.90;;
14373;SDS011;7270;49.004;12.066;2023-07-16T02:37:57;1.00;;;1.00;;
14373;SDS011;7270;49.004;12.066;2023-07-16T02:40:23;0.93;;;0.93;;
14373;SDS011;7270;49.004;12.066;2023-07-16T02:42:50;0.90;;;0.90;;
14373;SDS011;7270;49.004;12.066;2023-07-16T02:45:16;0.90;;;0.90;;
14373;SDS011;7270;49.004;12.066;2023-07-16T02:47:43;1.00;;;1.00;;
14373;SDS011;7270;49.004;12.066;2023-07-16T02:50:09;0.80;;;0.80;;
14373;SDS011;7270;49.004;12.066;2023-07-16T02:52:36;1.00;;;1.00;;
14373;SDS011;7270;49.004;12.066;2023-07-16T02:55:04;0.90;;;0.90;;
14373;SDS011;7270;49.004;12.066;2023-07-16T02:57:30;0.90;;;0.90;;
14373;SDS011;7270;49.004;12.066;2023-07-16T02:59:57;0.93;;;0.93;;
14373;SDS011;7270;49.004;12.066;2023-07-16T03:02:23;1.00;;;1.00;;
14373;SDS011;7270;49.004;12.066;2023-07-16T03:04:49;0.90;;;0.90;;
14373;SDS011;7270;49.004;12.066;2023-07-16T03:07:16;0.90;;;0.90;;
14373;SDS011;7270;49.004;12.066;2023-07-16T03:09:42;0.90;;;0.90;;
14373;SDS011;7270;49.004;12.066;2023-07-16T03:12:10;0.90;;;0.90;;
14373;SDS011;7270;49.004;12.066;2023-07-16T03:14:37;0.90;;;0.90;;
14373;SDS011;7270;49.004;12.066;2023-07-16T03:17:03;0.80;;;0.80;;
14373;SDS011;7270;49.004;12.066;2023-07-16T03:19:31;0.90;;;0.90;;
14373;SDS011;7270;49.004;12.066;2023-07-16T03:21:57;1.00;;;1.00;;
14373;SDS011;7270;49.004;12.066;2023-07-16T03:24:24;0.90;;;0.90;;
14373;SDS011;7270;49.004;12.066;2023-07-16T03:26:50;1.00;;;1.00;;
14373;SDS011;7270;49.004;12.066;2023-07-16T03:29:18;0.90;;;0.90;;
14373;SDS011;7270;49.004;12.066;2023-07-16T03:31:44;0.90;;;0.90;;
14373;SDS011;7270;49.004;12.066;2023-07-16T03:34:10;0.90;;;0.90;;
14373;SDS011;7270;49.004;12.066;2023-07-16T03:36:37;0.90;;;0.90;;
14373;SDS011;7270;49.004;12.066;2023-07-16T03:39:03;0.90;;;0.90;;
14373;SDS011;7270;49.004;12.066;2023-07-16T03:41:28;0.90;;;0.90;;
14373;SDS011;7270;49.004;12.066;2023-07-16T03:43:55;0.90;;;0.90;;
14373;SDS011;7270;49.004;12.066;2023-07-16T03:46:22;0.87;;;0.87;;
14373;SDS011;7270;49.004;12.066;2023-07-16T03:48:49;0.90;;;0.90;;
14373;SDS011;7270;49.004;12.066;2023-07-16T03:51:15;1.00;;;1.00;;
14373;SDS011;7270;49.004;12.066;2023-07-16T03:53:42;0.90;;;0.90;;
14373;SDS011;7270;49.004;12.066;2023-07-16T03:56:08;0.80;;;0.80;;
14373;SDS011;7270;49.004;12.066;2023-07-16T03:58:35;1.00;;;1.00;;
14373;SDS011;7270;49.004;12.066;2023-07-16T04:01:01;1.00;;;1.00;;
14373;SDS011;7270;49.004;12.066;2023-07-16T04:03:29;0.90;;;0.90;;
14373;SDS011;7270;49.004;12.066;2023-07-16T04:06:00;0.90;;;0.90;;
14373;SDS011;7270;49.004;12.066;2023-07-16T04:08:26;0.90;;;0.90;;
14373;SDS011;7270;49.004;12.066;2023-07-16T04:10:53;1.00;;;1.00;;
14373;SDS011;7270;49.004;12.066;2023-07-16T04:13:19;1.00;;;1.00;;
14373;SDS011;7270;49.004;12.066;2023-07-16T04:15:45;0.90;;;0.90;;
14373;SDS011;7270;49.004;12.066;2023-07-16T04:18:12;0.80;;;0.80;;
14373;SDS011;7270;49.004;12.066;2023-07-16T04:20:39;0.90;;;0.90;;
14373;SDS011;7270;49.004;12.066;2023-07-16T04:23:06;0.90;;;0.90;;
14373;SDS011;7270;49.004;12.066;2023-07-16T04:25:32;0.90;;;0.90;;
14373;SDS011;7270;49.004;12.066;2023-07-16T04:27:58;0.90;;;0.90;;
14373;SDS011;7270;49.004;12.066;2023-07-16T04:30:25;0.90;;;0.90;;
14373;SDS011;7270;49.004;12.066;2023-07-16T04:32:51;0.80;;;0.80;;
14373;SDS011;7270;49.004;12.066;2023-07-16T04:35:17;0.90;;;0.90;;
14373;SDS011;7270;49.004;12.066;2023-07-16T04:37:45;1.10;;;1.10;;
14373;SDS011;7270;49.004;12.066;2023-07-16T04:40:11;1.00;;;1.00;;
14373;SDS011;7270;49.004;12.066;2023-07-16T04:42:38;1.00;;;1.00;;
14373;SDS011;7270;49.004;12.066;2023-07-16T04:45:05;0.80;;;0.80;;
14373;SDS011;7270;49.004;12.066;2023-07-16T04:47:31;0.90;;;0.90;;
14373;SDS011;7270;49.004;12.066;2023-07-16T04:49:58;0.90;;;0.90;;
14373;SDS011;7270;49.004;12.066;2023-07-16T04:52:24;1.00;;;1.00;;
14373;SDS011;7270;49.004;12.066;2023-07-16T04:54:52;0.90;;;0.90;;
14373;SDS011;7270;49.004;12.066;2023-07-16T04:57:19;1.00;;;1.00;;
14373;SDS011;7270;49.004;12.066;2023-07-16T04:59:45;1.00;;;1.00;;
14373;SDS011;7270;49.004;12.066;2023-07-16T05:02:11;0.97;;;0.97;;
14373;SDS011;7270;49.004;12.066;2023-07-16T05:04:39;0.83;;;0.83;;
14373;SDS011;7270;49.004;12.066;2023-07-16T05:07:05;1.00;;;1.00;;
14373;SDS011;7270;49.004;12.066;2023-07-16T05:09:32;0.93;;;0.93;;
14373;SDS011;7270;49.004;12.066;2023-07-16T05:11:59;1.00;;;1.00;;
14373;SDS011;7270;49.004;12.066;2023-07-16T05:14:26;0.80;;;0.80;;
14373;SDS011;7270;49.004;12.066;2023-07-16T05:16:53;0.90;;;0.90;;
14373;SDS011;7270;49.004;12.066;2023-07-16T05:19:19;1.00;;;1.00;;
14373;SDS011;7270;49.004;12.066;2023-07-16T05:21:46;0.90;;;0.90;;
14373;SDS011;7270;49.004;12.066;2023-07-16T05:24:13;1.00;;;1.00;;
14373;SDS011;7270;49.004;12.066;2023-07-16T05:26:39;0.90;;;0.90;;
14373;SDS011;7270;49.004;12.066;2023-07-16T05:29:07;0.90;;;0.90;;
14373;SDS011;7270;49.004;12.066;2023-07-16T05:31:33;0.90;;;0.90;;
14373;SDS011;7270;49.004;12.066;2023-07-16T05:34:00;0.90;;;0.90;;
14373;SDS011;7270;49.004;12.066;2023-07-16T05:36:26;0.83;;;0.83;;
14373;SDS011;7270;49.004;12.066;2023-07-16T05:38:52;0.90;;;0.90;;
14373;SDS011;7270;49.004;12.066;2023-07-16T05:41:18;0.80;;;0.80;;
14373;SDS011;7270;49.004;12.066;2023-07-16T05:43:45;0.80;;;0.80;;
14373;SDS011;7270;49.004;12.066;2023-07-16T05:46:12;0.87;;;0.87;;
14373;SDS011;7270;49.004;12.066;2023-07-16T05:48:39;1.00;;;1.00;;
14373;SDS011;7270;49.004;12.066;2023-07-16T05:51:05;0.80;;;0.80;;
14373;SDS011;7270;49.004;12.066;2023-07-16T05:53:31;0.90;;;0.90;;
14373;SDS011;7270;49.004;12.066;2023-07-16T05:55:58;0.90;;;0.90;;
14373;SDS011;7270;49.004;12.066;2023-07-16T05:58:24;1.00;;;1.00;;
14373;SDS011;7270;49.004;12.066;2023-07-16T06:00:51;0.80;;;0.80;;
14373;SDS011;7270;49.004;12.066;2023-07-16T06:03:18;0.90;;;0.90;;
14373;SDS011;7270;49.004;12.066;2023-07-16T06:05:45;0.90;;;0.90;;
14373;SDS011;7270;49.004;12.066;2023-07-16T06:08:11;0.90;;;0.90;;
14373;SDS011;7270;49.004;12.066;2023-07-16T06:10:37;1.00;;;1.00;;
14373;SDS011;7270;49.004;12.066;2023-07-16T06:13:04;0.90;;;0.90;;
14373;SDS011;7270;49.004;12.066;2023-07-16T06:15:30;0.90;;;0.90;;
14373;SDS011;7270;49.004;12.066;2023-07-16T06:17:56;0.90;;;0.90;;
14373;SDS011;7270;49.004;12.066;2023-07-16T06:20:24;1.00;;;1.00;;
14373;SDS011;7270;49.004;12.066;2023-07-16T06:22:50;1.00;;;1.00;;
14373;SDS011;7270;49.004;12.066;2023-07-16T06:25:17;0.90;;;0.90;;
14373;SDS011;7270;49.004;12.066;2023-07-16T06:27:43;1.00;;;1.00;;
14373;SDS011;7270;49.004;12.066;2023-07-16T06:30:10;1.00;;;1.00;;
14373;SDS011;7270;49.004;12.066;2023-07-16T06:32:36;0.90;;;0.90;;
14373;SDS011;7270;49.004;12.066;2023-07-16T06:35:03;0.90;;;0.90;;
14373;SDS011;7270;49.004;12.066;2023-07-16T06:37:30;1.00;;;1.00;;
14373;SDS011;7270;49.004;12.066;2023-07-16T06:39:57;1.00;;;1.00;;
14373;SDS011;7270;49.004;12.066;2023-07-16T06:42:23;0.97;;;0.97;;
14373;SDS011;7270;49.004;12.066;2023-07-16T06:44:49;0.80;;;0.80;;
14373;SDS011;7270;49.004;12.066;2023-07-16T06:47:16;1.00;;;1.00;;
14373;SDS011;7270;49.004;12.066;2023-07-16T06:49:42;0.90;;;0.90;;
14373;SDS011;7270;49.004;12.066;2023-07-16T06:52:17;1.00;;;1.00;;
14373;SDS011;7270;49.004;12.066;2023-07-16T06:54:45;1.00;;;1.00;;
14373;SDS011;7270;49.004;12.066;2023-07-16T06:57:11;1.00;;;1.00;;
14373;SDS011;7270;49.004;12.066;2023-07-16T06:59:38;1.00;;;1.00;;
14373;SDS011;7270;49.004;12.066;2023-07-16T07:02:04;0.90;;;0.90;;
14373;SDS011;7270;49.004;12.066;2023-07-16T07:04:34;0.80;;;0.80;;
14373;SDS011;7270;49.004;12.066;2023-07-16T07:07:00;0.90;;;0.90;;
14373;SDS011;7270;49.004;12.066;2023-07-16T07:09:27;0.90;;;0.90;;
14373;SDS011;7270;49.004;12.066;2023-07-16T07:11:54;1.00;;;1.00;;
14373;SDS011;7270;49.004;12.066;2023-07-16T07:14:21;0.80;;;0.80;;
14373;SDS011;7270;49.004;12.066;2023-07-16T07:16:47;1.00;;;1.00;;
14373;SDS011;7270;49.004;12.066;2023-07-16T07:19:13;0.90;;;0.90;;
14373;SDS011;7270;49.004;12.066;2023-07-16T07:21:40;1.03;;;1.03;;
14373;SDS011;7270;49.004;12.066;2023-07-16T07:24:06;1.10;;;1.10;;
14373;SDS011;7270;49.004;12.066;2023-07-16T07:26:32;0.90;;;0.90;;
14373;SDS011;7270;49.004;12.066;2023-07-16T07:29:00;1.00;;;1.00;;
14373;SDS011;7270;49.004;12.066;2023-07-16T07:31:26;0.90;;;0.90;;
14373;SDS011;7270;49.004;12.066;2023-07-16T07:33:53;1.10;;;1.10;;
14373;SDS011;7270;49.004;12.066;2023-07-16T07:36:19;1.00;;;1.00;;
14373;SDS011;7270;49.004;12.066;2023-07-16T07:38:46;0.90;;;0.90;;
14373;SDS011;7270;49.004;12.066;2023-07-16T07:41:12;1.10;;;1.10;;
14373;SDS011;7270;49.004;12.066;2023-07-16T07:43:38;1.07;;;1.07;;
14373;SDS011;7270;49.004;12.066;2023-07-16T07:46:06;1.00;;;1.00;;
14373;SDS011;7270;49.004;12.066;2023-07-16T07:48:32;1.23;;;1.20;;
14373;SDS011;7270;49.004;12.066;2023-07-16T07:50:59;1.10;;;1.10;;
14373;SDS011;7270;49.004;12.066;2023-07-16T07:53:25;1.20;;;1.20;;
14373;SDS011;7270;49.004;12.066;2023-07-16T07:55:51;1.20;;;1.20;;
14373;SDS011;7270;49.004;12.066;2023-07-16T07:58:18;1.13;;;1.13;;
14373;SDS011;7270;49.004;12.066;2023-07-16T08:00:44;1.00;;;1.00;;
14373;SDS011;7270;49.004;12.066;2023-07-16T08:03:11;1.10;;;1.10;;
14373;SDS011;7270;49.004;12.066;2023-07-16T08:05:38;1.10;;;1.10;;
14373;SDS011;7270;49.004;12.066;2023-07-16T08:08:04;1.10;;;1.10;;
14373;SDS011;7270;49.004;12.066;2023-07-16T08:10:30;1.10;;;1.10;;
14373;SDS011;7270;49.004;12.066;2023-07-16T08:12:57;1.17;;;1.17;;
14373;SDS011;7270;49.004;12.066;2023-07-16T08:15:23;1.00;;;1.00;;
14373;SDS011;7270;49.004;12.066;2023-07-16T08:17:49;1.10;;;1.10;;
14373;SDS011;7270;49.004;12.066;2023-07-16T08:20:17;1.00;;;1.00;;
14373;SDS011;7270;49.004;12.066;2023-07-16T08:22:43;1.00;;;1.00;;
14373;SDS011;7270;49.004;12.066;2023-07-16T08:25:10;1.03;;;1.03;;
14373;SDS011;7270;49.004;12.066;2023-07-16T08:27:36;0.97;;;0.97;;
14373;SDS011;7270;49.004;12.066;2023-07-16T08:30:03;1.50;;;1.40;;
14373;SDS011;7270;49.004;12.066;2023-07-16T08:32:29;1.20;;;1.20;;
14373;SDS011;7270;49.004;12.066;2023-07-16T08:34:56;1.50;;;1.40;;
14373;SDS011;7270;49.004;12.066;2023-07-16T08:37:23;0.90;;;0.90;;
14373;SDS011;7270;49.004;12.066;2023-07-16T08:39:51;0.90;;;0.90;;
14373;SDS011;7270;49.004;12.066;2023-07-16T08:42:17;0.90;;;0.90;;
14373;SDS011;7270;49.004;12.066;2023-07-16T08:44:43;0.90;;;0.90;;
14373;SDS011;7270;49.004;12.066;2023-07-16T08:47:10;0.90;;;0.90;;
14373;SDS011;7270;49.004;12.066;2023-07-16T08:49:36;1.10;;;1.10;;
14373;SDS011;7270;49.004;12.066;2023-07-16T08:52:04;0.80;;;0.80;;
14373;SDS011;7270;49.004;12.066;2023-07-16T08:54:32;0.90;;;0.90;;
14373;SDS011;7270;49.004;12.066;2023-07-16T08:56:59;1.07;;;1.07;;
14373;SDS011;7270;49.004;12.066;2023-07-16T08:59:25;1.00;;;1.00;;
14373;SDS011;7270;49.004;12.066;2023-07-16T09:01:52;1.00;;;1.00;;
14373;SDS011;7270;49.004;12.066;2023-07-16T09:04:18;1.00;;;1.00;;
14373;SDS011;7270;49.004;12.066;2023-07-16T09:06:45;1.00;;;1.00;;
14373;SDS011;7270;49.004;12.066;2023-07-16T09:09:12;1.00;;;1.00;;
14373;SDS011;7270;49.004;12.066;2023-07-16T09:11:47;0.93;;;0.93;;
14373;SDS011;7270;49.004;12.066;2023-07-16T09:14:14;0.97;;;0.97;;
14373;SDS011;7270;49.004;12.066;2023-07-16T09:16:41;1.23;;;1.23;;
14373;SDS011;7270;49.004;12.066;2023-07-16T09:19:09;1.10;;;1.10;;
14373;SDS011;7270;49.004;12.066;2023-07-16T09:21:36;1.10;;;1.10;;
14373;SDS011;7270;49.004;12.066;2023-07-16T09:24:05;1.10;;;1.10;;
14373;SDS011;7270;49.004;12.066;2023-07-16T09:26:32;1.70;;;1.60;;
14373;SDS011;7270;49.004;12.066;2023-07-16T09:29:00;1.10;;;1.10;;
14373;SDS011;7270;49.004;12.066;2023-07-16T09:31:26;1.20;;;1.20;;
14373;SDS011;7270;49.004;12.066;2023-07-16T09:33:52;1.13;;;1.13;;
14373;SDS011;7270;49.004;12.066;2023-07-16T09:36:23;1.20;;;1.20;;
14373;SDS011;7270;49.004;12.066;2023-07-16T09:38:49;1.10;;;1.10;;
14373;SDS011;7270;49.004;12.066;2023-07-16T09:41:15;1.10;;;1.10;;
14373;SDS011;7270;49.004;12.066;2023-07-16T09:43:42;1.20;;;1.20;;
14373;SDS011;7270;49.004;12.066;2023-07-16T09:46:11;1.10;;;1.10;;
14373;SDS011;7270;49.004;12.066;2023-07-16T09:48:37;1.10;;;1.10;;
14373;SDS011;7270;49.004;12.066;2023-07-16T09:51:04;1.00;;;1.00;;
14373;SDS011;7270;49.004;12.066;2023-07-16T09:53:32;1.10;;;1.10;;
14373;SDS011;7270;49.004;12.066;2023-07-16T09:56:00;1.10;;;1.10;;
14373;SDS011;7270;49.004;12.066;2023-07-16T09:58:29;1.00;;;1.00;;
14373;SDS011;7270;49.004;12.066;2023-07-16T10:00:56;1.10;;;1.10;;
14373;SDS011;7270;49.004;12.066;2023-07-16T10:03:24;1.20;;;1.20;;
14373;SDS011;7270;49.004;12.066;2023-07-16T10:05:50;1.10;;;1.10;;
14373;SDS011;7270;49.004;12.066;2023-07-16T10:08:17;1.10;;;1.10;;
14373;SDS011;7270;49.004;12.066;2023-07-16T10:10:45;1.10;;;1.10;;
14373;SDS011;7270;49.004;12.066;2023-07-16T10:13:13;1.00;;;1.00;;
14373;SDS011;7270;49.004;12.066;2023-07-16T10:15:50;1.10;;;1.10;;
14373;SDS011;7270;49.004;12.066;2023-07-16T10:18:23;1.00;;;1.00;;
14373;SDS011;7270;49.004;12.066;2023-07-16T10:20:49;1.37;;;1.27;;
14373;SDS011;7270;49.004;12.066;2023-07-16T10:23:17;1.20;;;1.20;;
14373;SDS011;7270;49.004;12.066;2023-07-16T10:25:57;1.10;;;1.10;;
14373;SDS011;7270;49.004;12.066;2023-07-16T10:28:23;1.40;;;1.30;;
14373;SDS011;7270;49.004;12.066;2023-07-16T10:30:50;1.20;;;1.20;;
14373;SDS011;7270;49.004;12.066;2023-07-16T10:33:16;1.40;;;1.30;;
14373;SDS011;7270;49.004;12.066;2023-07-16T10:35:44;1.40;;;1.30;;
14373;SDS011;7270;49.004;12.066;2023-07-16T10:38:11;1.50;;;1.40;;
14373;SDS011;7270;49.004;12.066;2023-07-16T10:40:39;1.60;;;1.50;;
14373;SDS011;7270;49.004;12.066;2023-07-16T10:43:05;569.37;;;496.37;;
14373;SDS011;7270;49.004;12.066;2023-07-16T10:45:32;577.07;;;513.43;;
14373;SDS011;7270;49.004;12.066;2023-07-16T10:47:59;529.90;;;480.87;;
14373;SDS011;7270;49.004;12.066;2023-07-16T10:50:25;115.50;;;110.33;;
14373;SDS011;7270;49.004;12.066;2023-07-16T10:52:53;210.43;;;201.13;;
14373;SDS011;7270;49.004;12.066;2023-07-16T10:55:20;295.43;;;281.10;;
14373;SDS011;7270;49.004;12.066;2023-07-16T10:57:46;331.23;;;314.20;;
14373;SDS011;7270;49.004;12.066;2023-07-16T11:00:13;380.33;;;359.80;;
14373;SDS011;7270;49.004;12.066;2023-07-16T11:02:39;628.80;;;581.60;;
14373;SDS011;7270;49.004;12.066;2023-07-16T11:05:09;558.10;;;520.60;;
14373;SDS011;7270;49.004;12.066;2023-07-16T11:07:37;673.63;;;607.93;;
14373;SDS011;7270;49.004;12.066;2023-07-16T11:10:06;681.90;;;616.17;;
14373;SDS011;7270;49.004;12.066;2023-07-16T11:12:33;688.10;;;622.30;;
14373;SDS011;7270;49.004;12.066;2023-07-16T11:14:59;674.53;;;609.03;;
14373;SDS011;7270;49.004;12.066;2023-07-16T11:17:25;657.27;;;592.47;;
14373;SDS011;7270;49.004;12.066;2023-07-16T11:19:52;606.63;;;543.43;;
14373;SDS011;7270;49.004;12.066;2023-07-16T11:22:23;634.07;;;569.70;;
14373;SDS011;7270;49.004;12.066;2023-07-16T11:24:51;621.43;;;557.17;;
14373;SDS011;7270;49.004;12.066;2023-07-16T11:27:19;283.43;;;268.03;;
14373;SDS011;7270;49.004;12.066;2023-07-16T11:29:46;488.40;;;445.67;;
14373;SDS011;7270;49.004;12.066;2023-07-16T11:32:13;598.67;;;534.77;;
14373;SDS011;7270;49.004;12.066;2023-07-16T11:34:51;12.47;;;11.87;;
14373;SDS011;7270;49.004;12.066;2023-07-16T11:37:17;1.90;;;1.80;;
14373;SDS011;7270;49.004;12.066;2023-07-16T11:39:45;1.80;;;1.70;;
14373;SDS011;7270;49.004;12.066;2023-07-16T11:42:12;1.90;;;1.80;;
14373;SDS011;7270;49.004;12.066;2023-07-16T11:44:39;2.00;;;1.90;;
14373;SDS011;7270;49.004;12.066;2023-07-16T11:47:06;1.70;;;1.60;;
14373;SDS011;7270;49.004;12.066;2023-07-16T11:49:32;1.70;;;1.60;;
14373;SDS011;7270;49.004;12.066;2023-07-16T11:51:59;1.73;;;1.63;;
14373;SDS011;7270;49.004;12.066;2023-07-16T11:54:25;1.90;;;1.80;;
14373;SDS011;7270;49.004;12.066;2023-07-16T11:56:51;1.70;;;1.60;;
14373;SDS011;7270;49.004;12.066;2023-07-16T11:59:17;2.33;;;2.23;;
14373;SDS011;7270;49.004;12.066;2023-07-16T12:01:46;2.10;;;2.00;;
14373;SDS011;7270;49.004;12.066;2023-07-16T12:04:13;2.40;;;2.30;;
14373;SDS011;7270;49.004;12.066;2023-07-16T12:06:40;2.70;;;2.60;;
14373;SDS011;7270;49.004;12.066;2023-07-16T12:09:06;3.43;;;3.30;;
14373;SDS011;7270;49.004;12.066;2023-07-16T12:11:32;3.80;;;3.60;;
14373;SDS011;7270;49.004;12.066;2023-07-16T12:13:59;3.30;;;3.20;;
14373;SDS011;7270;49.004;12.066;2023-07-16T12:16:25;4.60;;;4.40;;
14373;SDS011;7270;49.004;12.066;2023-07-16T12:18:53;3.90;;;3.70;;
14373;SDS011;7270;49.004;12.066;2023-07-16T12:21:19;4.70;;;4.50;;
14373;SDS011;7270;49.004;12.066;2023-07-16T12:23:45;4.43;;;4.23;;
14373;SDS011;7270;49.004;12.066;2023-07-16T12:26:12;5.20;;;5.00;;
14373;SDS011;7270;49.004;12.066;2023-07-16T12:28:38;6.13;;;5.83;;
14373;SDS011;7270;49.004;12.066;2023-07-16T12:31:05;5.40;;;5.20;;
14373;SDS011;7270;49.004;12.066;2023-07-16T12:33:31;6.30;;;5.90;;
14373;SDS011;7270;49.004;12.066;2023-07-16T12:36:06;6.00;;;5.70;;
14373;SDS011;7270;49.004;12.066;2023-07-16T12:38:32;3.83;;;3.63;;
14373;SDS011;7270;49.004;12.066;2023-07-16T12:40:58;4.33;;;4.13;;
14373;SDS011;7270;49.004;12.066;2023-07-16T12:43:25;5.03;;;4.83;;
14373;SDS011;7270;49.004;12.066;2023-07-16T12:45:51;5.87;;;5.57;;
14373;SDS011;7270;49.004;12.066;2023-07-16T12:48:17;6.33;;;6.03;;
14373;SDS011;7270;49.004;12.066;2023-07-16T12:50:44;12.87;;;12.27;;
14373;SDS011;7270;49.004;12.066;2023-07-16T12:53:11;41.73;;;39.83;;
14373;SDS011;7270;49.004;12.066;2023-07-16T12:55:38;32.07;;;30.40;;
14373;SDS011;7270;49.004;12.066;2023-07-16T12:58:04;146.33;;;139.27;;
14373;SDS011;7270;49.004;12.066;2023-07-16T13:00:30;61.23;;;58.33;;
14373;SDS011;7270;49.004;12.066;2023-07-16T13:02:56;166.40;;;158.73;;
14373;SDS011;7270;49.004;12.066;2023-07-16T13:05:23;53.73;;;51.03;;
14373;SDS011;7270;49.004;12.066;2023-07-16T13:07:49;13.47;;;12.87;;
14373;SDS011;7270;49.004;12.066;2023-07-16T13:10:18;16.80;;;16.00;;
14373;SDS011;7270;49.004;12.066;2023-07-16T13:12:44;44.03;;;42.00;;
14373;SDS011;7270;49.004;12.066;2023-07-16T13:15:11;103.83;;;99.20;;
14373;SDS011;7270;49.004;12.066;2023-07-16T13:17:37;119.70;;;114.13;;
14373;SDS011;7270;49.004;12.066;2023-07-16T13:20:04;128.03;;;122.20;;
14373;SDS011;7270;49.004;12.066;2023-07-16T13:22:31;416.63;;;380.80;;
14373;SDS011;7270;49.004;12.066;2023-07-16T13:24:57;1.80;;;1.70;;
14373;SDS011;7270;49.004;12.066;2023-07-16T13:27:25;1.57;;;1.47;;
14373;SDS011;7270;49.004;12.066;2023-07-16T13:29:52;1.60;;;1.50;;
14373;SDS011;7270;49.004;12.066;2023-07-16T13:32:18;1.70;;;1.60;;
14373;SDS011;7270;49.004;12.066;2023-07-16T13:34:45;1.60;;;1.50;;
14373;SDS011;7270;49.004;12.066;2023-07-16T13:37:11;1.60;;;1.50;;
14373;SDS011;7270;49.004;12.066;2023-07-16T13:39:37;1.70;;;1.60;;
14373;SDS011;7270;49.004;12.066;2023-07-16T13:42:04;1.60;;;1.50;;
14373;SDS011;7270;49.004;12.066;2023-07-16T13:44:32;1.50;;;1.40;;
14373;SDS011;7270;49.004;12.066;2023-07-16T13:46:59;1.50;;;1.40;;
14373;SDS011;7270;49.004;12.066;2023-07-16T13:49:25;1.50;;;1.40;;
14373;SDS011;7270;49.004;12.066;2023-07-16T13:51:51;1.50;;;1.40;;
14373;SDS011;7270;49.004;12.066;2023-07-16T13:54:18;1.60;;;1.50;;
14373;SDS011;7270;49.004;12.066;2023-07-16T13:56:44;1.50;;;1.40;;
14373;SDS011;7270;49.004;12.066;2023-07-16T13:59:11;1.50;;;1.40;;
14373;SDS011;7270;49.004;12.066;2023-07-16T14:01:39;1.30;;;1.30;;
14373;SDS011;7270;49.004;12.066;2023-07-16T14:04:05;1.60;;;1.50;;
14373;SDS011;7270;49.004;12.066;2023-07-16T14:06:31;1.60;;;1.50;;
14373;SDS011;7270;49.004;12.066;2023-07-16T14:08:58;1.50;;;1.40;;
14373;SDS011;7270;49.004;12.066;2023-07-16T14:11:24;1.50;;;1.40;;
14373;SDS011;7270;49.004;12.066;2023-07-16T14:13:51;1.60;;;1.50;;
14373;SDS011;7270;49.004;12.066;2023-07-16T14:16:18;1.50;;;1.40;;
14373;SDS011;7270;49.004;12.066;2023-07-16T14:18:48;1.53;;;1.43;;
14373;SDS011;7270;49.004;12.066;2023-07-16T14:21:14;1.70;;;1.60;;
14373;SDS011;7270;49.004;12.066;2023-07-16T14:23:40;1.50;;;1.40;;
14373;SDS011;7270;49.004;12.066;2023-07-16T14:26:07;1.60;;;1.50;;
14373;SDS011;7270;49.004;12.066;2023-07-16T14:28:33;1.50;;;1.40;;
14373;SDS011;7270;49.004;12.066;2023-07-16T14:30:59;1.53;;;1.43;;
14373;SDS011;7270;49.004;12.066;2023-07-16T14:33:26;1.50;;;1.40;;
14373;SDS011;7270;49.004;12.066;2023-07-16T14:35:54;1.40;;;1.30;;
14373;SDS011;7270;49.004;12.066;2023-07-16T14:38:20;1.40;;;1.30;;
14373;SDS011;7270;49.004;12.066;2023-07-16T14:40:46;1.50;;;1.40;;